Terminal Aerodrome Forecast
Issued by NWS

Home | Current Version | Previous Version | Text Only | Print | Product List | Glossary On
Versions: 1 2 3 4 5 6 7 8 9 10 11 12 13
000
FTUS45 KABQ 262324
TAFTCC
TAF
KTCC 262324Z 2700/2724 02020G30KT P6SM SCT080
     FM270100 02015G22KT P6SM SCT080
     FM270500 05007KT P6SM SCT030 SCT250
     FM271400 17010KT P6SM SCT250
     FM272000 20015G25KT P6SM SCT080 SCT120=

USA.gov is the U.S. government's official web portal to all federal, state and local government web resources and services.